Time;durP1;ratioP1;P1;durP2;ratioP2;P2;SDS_P1;SDS_P2;PMS_P1;PMS_P2;Temp;Humidity;BMP_temperature;BMP_pressure;BME280_temperature;BME280_humidity;BME280_pressure;Samples;Min_cycle;Max_cycle;Signal;HPM_P1;HPM_P2
2024/04/02 00:02:47;;;;;;;3.78;1.38;;;20.70;50.30;;;;;;10360814;28;20521;-58
2024/04/02 00:07:48;;;;;;;2.97;1.27;;;20.60;50.30;;;;;;10369570;28;20097;-59
2024/04/02 00:12:51;;;;;;;5.05;1.67;;;20.50;50.10;;;;;;10366502;28;20128;-58
2024/04/02 00:17:53;;;;;;;2.35;1.45;;;20.30;50.40;;;;;;10364994;28;20411;-57
2024/04/02 00:22:55;;;;;;;4.57;1.40;;;20.50;50.10;;;;;;10375516;28;20048;-59
2024/04/02 00:27:58;;;;;;;5.80;1.50;;;20.50;49.80;;;;;;10378620;28;20073;-54
2024/04/02 00:32:59;;;;;;;4.50;1.50;;;20.50;49.80;;;;;;10371620;28;20145;-58
2024/04/02 00:38:01;;;;;;;3.22;1.40;;;20.50;49.70;;;;;;10370710;28;20133;-57
2024/04/02 00:43:07;;;;;;;5.22;1.67;;;20.40;49.70;;;;;;10371805;28;20568;-59
2024/04/02 00:48:09;;;;;;;4.07;1.20;;;20.40;49.60;;;;;;10372165;28;20068;-59
2024/04/02 00:53:11;;;;;;;4.60;1.48;;;20.50;49.40;;;;;;10371650;28;20050;-58
2024/04/02 00:58:14;;;;;;;3.40;1.15;;;20.40;49.30;;;;;;10375000;28;20042;-58
2024/04/02 01:03:15;;;;;;;3.45;1.25;;;20.30;49.40;;;;;;10369160;28;20133;-57
2024/04/02 01:08:17;;;;;;;3.60;1.20;;;20.40;49.50;;;;;;10370489;28;20138;-57
2024/04/02 01:13:21;;;;;;;4.47;1.20;;;20.40;49.30;;;;;;10376188;28;20133;-57
2024/04/02 01:18:22;;;;;;;3.00;1.05;;;20.30;49.40;;;;;;10377040;28;20046;-58
2024/04/02 01:23:24;;;;;;;3.45;1.20;;;20.20;49.50;;;;;;10372108;28;20513;-59
2024/04/02 01:28:27;;;;;;;2.30;1.30;;;20.30;49.30;;;;;;10359598;28;20126;-58
2024/04/02 01:33:29;;;;;;;4.13;1.23;;;20.30;49.10;;;;;;10372315;28;20064;-58
2024/04/02 01:38:30;;;;;;;3.50;1.75;;;20.30;49.30;;;;;;10365923;28;20046;-58
2024/04/02 01:43:33;;;;;;;4.03;1.23;;;20.30;48.80;;;;;;10374401;28;20575;-58
2024/04/02 01:48:35;;;;;;;3.92;1.52;;;20.20;49.20;;;;;;10375897;28;20050;-54
2024/04/02 01:53:36;;;;;;;5.32;1.73;;;20.50;48.60;;;;;;10369978;28;20081;-55
2024/04/02 01:58:39;;;;;;;2.80;1.65;;;20.50;48.70;;;;;;10364787;28;20049;-51
2024/04/02 02:03:41;;;;;;;4.30;1.60;;;20.30;49.10;;;;;;10369687;28;20039;-53
2024/04/02 02:08:43;;;;;;;3.42;1.50;;;20.80;48.30;;;;;;10366088;28;20057;-55
2024/04/02 02:13:46;;;;;;;2.28;1.27;;;20.60;48.70;;;;;;10364523;28;20042;-56
2024/04/02 02:18:48;;;;;;;2.25;1.65;;;20.70;48.40;;;;;;10365722;28;20038;-51
2024/04/02 02:23:50;;;;;;;3.13;1.60;;;20.70;48.50;;;;;;10364016;28;20500;-53
2024/04/02 02:28:53;;;;;;;3.65;1.60;;;20.60;48.80;;;;;;10370136;28;20041;-52
2024/04/02 02:33:55;;;;;;;3.70;1.80;;;20.70;48.60;;;;;;10371141;28;20436;-54
2024/04/02 02:38:57;;;;;;;2.40;1.40;;;20.80;48.50;;;;;;10364253;28;20077;-55
2024/04/02 02:44:00;;;;;;;2.60;1.60;;;20.70;48.80;;;;;;10366576;28;20042;-54
2024/04/02 02:49:02;;;;;;;2.15;1.50;;;20.80;48.40;;;;;;10374749;28;20046;-53
2024/04/02 02:54:04;;;;;;;3.53;1.80;;;20.70;48.60;;;;;;10370409;28;20044;-53
2024/04/02 02:59:07;;;;;;;2.30;1.42;;;20.70;48.90;;;;;;10364637;28;20060;-55
2024/04/02 03:04:08;;;;;;;2.53;1.70;;;20.50;49.40;;;;;;10372306;28;20042;-50
2024/04/02 03:09:10;;;;;;;2.58;1.48;;;20.50;49.40;;;;;;10368102;28;20059;-50
2024/04/02 03:14:13;;;;;;;3.33;1.50;;;20.10;50.60;;;;;;10370057;28;20100;-51
2024/04/02 03:19:15;;;;;;;2.85;2.17;;;20.60;50.00;;;;;;10366546;28;20079;-55
2024/04/02 03:24:16;;;;;;;3.63;2.72;;;21.30;48.50;;;;;;10366226;28;20412;-53
2024/04/02 03:29:19;;;;;;;3.90;3.10;;;21.70;48.10;;;;;;10363144;28;20045;-54
2024/04/02 03:34:22;;;;;;;4.85;3.80;;;21.70;48.30;;;;;;10365181;28;20072;-56
2024/04/02 03:39:24;;;;;;;4.63;3.70;;;21.60;48.50;;;;;;10360606;28;20072;-50
2024/04/02 03:44:27;;;;;;;5.38;3.70;;;21.50;48.60;;;;;;10366022;28;20068;-51
2024/04/02 03:49:29;;;;;;;4.72;3.78;;;21.40;49.20;;;;;;10364948;28;20128;-53
2024/04/02 03:54:31;;;;;;;4.63;3.85;;;21.40;49.30;;;;;;10363338;28;20077;-52
2024/04/02 03:59:36;;;;;;;4.60;3.63;;;21.60;48.90;;;;;;10363471;28;20046;-53
2024/04/02 04:04:37;;;;;;;4.68;3.70;;;22.00;48.30;;;;;;10362310;28;20037;-51
2024/04/02 04:09:39;;;;;;;4.38;3.65;;;21.90;48.60;;;;;;10364813;28;20495;-55
2024/04/02 04:14:42;;;;;;;3.83;3.40;;;21.90;48.50;;;;;;10399297;28;20538;-59
2024/04/02 04:19:45;;;;;;;4.10;3.42;;;21.90;48.60;;;;;;10397434;28;20526;-53
2024/04/02 04:24:46;;;;;;;3.67;3.20;;;22.00;48.60;;;;;;10399658;28;20049;-52
2024/04/02 04:29:50;;;;;;;4.03;3.40;;;22.10;48.10;;;;;;10397974;28;20136;-51
2024/04/02 04:34:51;;;;;;;3.85;3.47;;;22.30;48.00;;;;;;10396504;28;20054;-52
2024/04/02 04:39:53;;;;;;;3.53;3.00;;;22.30;47.90;;;;;;10393845;28;20072;-50
2024/04/02 04:44:56;;;;;;;4.97;2.67;;;22.30;47.90;;;;;;10395720;28;20112;-52
2024/04/02 04:49:57;;;;;;;4.30;3.10;;;22.30;48.00;;;;;;10401792;28;20045;-52
2024/04/02 04:54:59;;;;;;;4.28;2.70;;;22.40;47.70;;;;;;10402773;28;20459;-49
2024/04/02 05:00:03;;;;;;;4.45;2.88;;;22.40;47.90;;;;;;10403027;28;22176;-57
2024/04/02 05:05:05;;;;;;;3.72;2.50;;;22.40;48.30;;;;;;10398294;28;20488;-51
2024/04/02 05:10:08;;;;;;;3.08;2.35;;;22.30;48.40;;;;;;10419316;28;20048;-49
2024/04/02 05:15:11;;;;;;;2.78;2.35;;;22.40;48.30;;;;;;10415826;28;20073;-55
2024/04/02 05:20:12;;;;;;;3.30;2.20;;;22.30;48.60;;;;;;10403938;28;20046;-50
2024/04/02 05:25:15;;;;;;;3.22;2.60;;;22.20;49.50;;;;;;10408126;28;20046;-51
2024/04/02 05:30:18;;;;;;;5.45;2.50;;;22.20;48.90;;;;;;10399852;28;20441;-56
2024/04/02 05:35:20;;;;;;;11.43;3.50;;;22.10;49.60;;;;;;10410157;28;20046;-54
2024/04/02 05:40:22;;;;;;;7.80;2.63;;;22.10;50.70;;;;;;10394435;28;20050;-56
2024/04/02 05:45:26;;;;;;;12.52;3.05;;;22.10;50.70;;;;;;10404328;28;20503;-53
2024/04/02 05:50:27;;;;;;;7.55;2.80;;;22.20;51.00;;;;;;10397271;28;20045;-59
2024/04/02 05:55:31;;;;;;;15.07;2.67;;;22.30;49.80;;;;;;10404004;28;20136;-54
2024/04/02 06:00:37;;;;;;;11.60;2.45;;;22.30;50.30;;;;;;10351978;28;20050;-54
2024/04/02 06:05:42;;;;;;;7.82;2.30;;;22.60;49.70;;;;;;10361440;28;20042;-55
2024/04/02 06:10:44;;;;;;;8.82;2.20;;;22.50;49.80;;;;;;10361142;28;20060;-52
2024/04/02 06:15:47;;;;;;;13.52;2.58;;;22.50;50.00;;;;;;10366104;28;20052;-54
2024/04/02 06:20:57;;;;;;;6.43;2.03;;;22.40;50.20;;;;;;10357767;28;20054;-56
2024/04/02 06:25:59;;;;;;;9.30;2.37;;;22.60;49.80;;;;;;10369860;28;20048;-51
2024/04/02 06:31:03;;;;;;;5.90;1.80;;;22.60;49.80;;;;;;10397593;28;20140;-55
2024/04/02 06:36:05;;;;;;;5.75;1.80;;;22.50;50.90;;;;;;10345464;28;20105;-56
2024/04/02 06:41:07;;;;;;;7.25;1.90;;;22.50;50.80;;;;;;10348575;28;20535;-55
2024/04/02 06:46:10;;;;;;;4.72;2.08;;;22.70;50.70;;;;;;10361565;28;20046;-52
2024/04/02 06:51:13;;;;;;;4.85;1.75;;;22.40;51.10;;;;;;10338360;28;20056;-55
2024/04/02 06:56:15;;;;;;;3.88;1.50;;;22.50;51.30;;;;;;10335427;28;20384;-53
2024/04/02 07:01:21;;;;;;;2.97;1.45;;;22.50;51.30;;;;;;10338001;28;20049;-54
2024/04/02 07:06:22;;;;;;;4.03;1.45;;;22.50;51.60;;;;;;10335766;28;20065;-57
2024/04/02 07:11:24;;;;;;;5.70;1.50;;;22.50;51.70;;;;;;10336295;28;20058;-57
2024/04/02 07:16:27;;;;;;;4.70;1.70;;;22.60;51.70;;;;;;10329885;28;20061;-52
2024/04/02 07:21:28;;;;;;;4.72;1.80;;;22.60;51.70;;;;;;10347488;28;20849;-54
2024/04/02 07:26:30;;;;;;;2.58;1.58;;;22.70;51.70;;;;;;10369527;28;20052;-53
2024/04/02 07:31:35;;;;;;;3.55;1.50;;;22.80;51.80;;;;;;10351521;28;20429;-53
2024/04/02 07:36:37;;;;;;;2.58;1.15;;;22.90;51.60;;;;;;10369152;28;20671;-57
2024/04/02 07:41:38;;;;;;;2.42;1.20;;;23.00;51.50;;;;;;10339578;28;20120;-55
2024/04/02 07:46:42;;;;;;;3.88;1.50;;;23.10;51.70;;;;;;10339949;28;20141;-52
2024/04/02 07:51:44;;;;;;;4.45;1.60;;;23.10;51.60;;;;;;10338023;28;20477;-56
2024/04/02 07:56:45;;;;;;;4.70;1.60;;;23.10;51.70;;;;;;10335039;28;20074;-52
2024/04/02 08:01:48;;;;;;;2.30;1.17;;;23.20;51.70;;;;;;10341705;28;20046;-54
2024/04/02 08:06:50;;;;;;;4.75;1.30;;;23.20;51.80;;;;;;10347942;28;20046;-58
2024/04/02 08:11:51;;;;;;;2.88;1.20;;;23.20;51.80;;;;;;10344171;28;20042;-54
2024/04/02 08:16:54;;;;;;;1.40;1.00;;;23.20;52.00;;;;;;10333861;28;20046;-54
2024/04/02 08:21:56;;;;;;;2.08;1.10;;;23.30;51.90;;;;;;10333346;28;20046;-53
2024/04/02 08:26:59;;;;;;;2.95;1.35;;;23.30;51.80;;;;;;10339315;28;20136;-53
2024/04/02 08:32:03;;;;;;;2.38;1.02;;;23.30;52.00;;;;;;10351742;28;20046;-55
2024/04/02 08:37:04;;;;;;;2.95;1.20;;;23.30;52.00;;;;;;10355364;28;20069;-51
2024/04/02 08:42:06;;;;;;;4.35;1.48;;;23.30;52.10;;;;;;10359473;28;20046;-57
2024/04/02 08:47:09;;;;;;;3.35;1.58;;;23.40;51.90;;;;;;10332969;28;20132;-55
2024/04/02 08:52:11;;;;;;;8.85;1.63;;;23.30;51.90;;;;;;10333461;28;20504;-53
2024/04/02 08:57:13;;;;;;;5.05;1.30;;;23.20;51.30;;;;;;10361810;28;20049;-53
2024/04/02 09:02:16;;;;;;;9.50;1.30;;;23.40;50.50;;;;;;10382929;28;20048;-55
2024/04/02 09:07:17;;;;;;;7.40;1.30;;;23.40;50.00;;;;;;10381851;28;20046;-54
2024/04/02 09:12:20;;;;;;;3.38;1.27;;;23.30;50.10;;;;;;10372774;28;20163;-51
2024/04/02 09:17:24;;;;;;;5.57;1.00;;;23.50;49.40;;;;;;10379102;28;20042;-55
2024/04/02 09:22:26;;;;;;;4.25;1.25;;;23.60;49.20;;;;;;10370652;28;20045;-57
2024/04/02 09:27:28;;;;;;;5.05;1.30;;;23.60;49.10;;;;;;10376332;28;20408;-54
2024/04/02 09:32:31;;;;;;;3.28;1.00;;;23.60;49.00;;;;;;10372817;28;20052;-55
2024/04/02 09:37:35;;;;;;;3.20;1.00;;;23.50;49.10;;;;;;10374913;28;20080;-54
2024/04/02 09:42:36;;;;;;;1.25;0.90;;;23.30;49.40;;;;;;10371110;28;20037;-57
2024/04/02 09:47:39;;;;;;;3.00;1.05;;;23.30;49.60;;;;;;10373602;28;20068;-54
2024/04/02 09:52:42;;;;;;;1.58;0.85;;;23.20;49.70;;;;;;10379959;28;20045;-53
2024/04/02 09:57:43;;;;;;;2.15;1.02;;;23.10;49.90;;;;;;10376891;28;21161;-55
2024/04/02 10:02:47;;;;;;;1.95;1.00;;;22.90;50.10;;;;;;10369762;28;20049;-57
2024/04/02 10:07:49;;;;;;;1.58;1.00;;;23.10;49.60;;;;;;10369395;28;20049;-54
2024/04/02 10:12:52;;;;;;;4.00;0.82;;;23.30;49.20;;;;;;10369249;28;20060;-56
2024/04/02 10:17:58;;;;;;;2.65;1.15;;;23.20;49.30;;;;;;10347375;28;20046;-57
2024/04/02 10:23:01;;;;;;;2.95;1.00;;;23.20;49.30;;;;;;10333495;28;20043;-60
2024/04/02 10:28:03;;;;;;;4.18;0.90;;;23.10;49.90;;;;;;10339309;28;20570;-56
2024/04/02 10:33:17;;;;;;;5.95;1.15;;;22.90;51.10;;;;;;10329050;28;20421;-57
2024/04/02 10:38:19;;;;;;;2.38;1.00;;;22.90;51.50;;;;;;10369811;28;20136;-58
2024/04/02 10:43:21;;;;;;;3.78;0.98;;;23.10;50.70;;;;;;10388921;28;20045;-57
2024/04/02 10:48:23;;;;;;;3.50;1.00;;;23.20;50.30;;;;;;10378448;28;20046;-58
2024/04/02 10:53:25;;;;;;;1.80;0.73;;;23.30;50.20;;;;;;10388545;28;20037;-59
2024/04/02 10:58:27;;;;;;;2.33;1.00;;;23.30;49.90;;;;;;10385555;28;20411;-60
2024/04/02 11:03:30;;;;;;;2.25;0.85;;;23.10;50.40;;;;;;10395840;28;20041;-59
2024/04/02 11:08:32;;;;;;;2.65;0.90;;;23.00;50.70;;;;;;10379574;28;20538;-60
2024/04/02 11:13:34;;;;;;;2.72;0.88;;;22.80;51.40;;;;;;10392350;28;20083;-59
2024/04/02 11:18:37;;;;;;;3.65;1.00;;;23.00;51.50;;;;;;10389785;28;20056;-59
2024/04/02 11:29:05;;;;;;;2.47;0.80;;;22.90;51.80;;;;;;10393576;28;20136;-58
2024/04/02 11:34:08;;;;;;;3.97;1.10;;;23.10;51.70;;;;;;10388695;28;20575;-59
2024/04/02 11:39:10;;;;;;;3.13;1.13;;;23.10;51.50;;;;;;10394198;28;20076;-60
2024/04/02 11:44:12;;;;;;;2.30;0.90;;;23.10;50.90;;;;;;10389131;28;20042;-59
2024/04/02 11:49:15;;;;;;;2.03;1.10;;;23.10;50.50;;;;;;10387176;28;20616;-58
2024/04/02 11:54:17;;;;;;;3.97;1.33;;;23.30;50.00;;;;;;10397767;28;20041;-59
2024/04/02 12:04:39;;;;;;;2.95;1.13;;;23.30;49.70;;;;;;10347749;28;20038;-56
2024/04/02 12:09:41;;;;;;;2.47;0.80;;;23.10;50.10;;;;;;10360147;28;20059;-59
2024/04/02 12:14:43;;;;;;;1.83;1.00;;;23.50;49.30;;;;;;10364253;28;20046;-56
2024/04/02 12:19:46;;;;;;;2.78;1.00;;;23.60;49.00;;;;;;10359201;28;20569;-59
2024/04/02 12:24:47;;;;;;;4.20;1.13;;;23.60;49.50;;;;;;10359114;28;20426;-58
2024/04/02 12:29:53;;;;;;;2.58;0.90;;;23.60;48.70;;;;;;10357503;28;20068;-56
2024/04/02 12:34:56;;;;;;;3.13;0.93;;;23.60;48.50;;;;;;10353086;28;20044;-52
2024/04/02 12:39:58;;;;;;;2.72;0.80;;;23.60;48.50;;;;;;10350049;28;20124;-51
2024/04/02 12:45:00;;;;;;;3.70;0.93;;;23.60;48.70;;;;;;10349699;28;20141;-56
2024/04/02 12:50:03;;;;;;;2.03;1.02;;;23.40;49.00;;;;;;10348139;28;20046;-56
2024/04/02 12:55:05;;;;;;;2.72;0.63;;;23.60;48.80;;;;;;10345830;28;20133;-56
2024/04/02 13:00:08;;;;;;;3.78;0.75;;;23.50;49.10;;;;;;10346624;28;20042;-55
2024/04/02 13:05:11;;;;;;;2.50;0.80;;;23.50;49.10;;;;;;10347241;28;20630;-56
2024/04/02 13:10:13;;;;;;;1.25;0.80;;;23.40;49.20;;;;;;10351115;28;20085;-57
2024/04/02 13:15:15;;;;;;;1.70;0.70;;;23.30;49.70;;;;;;10345333;28;20054;-58
2024/04/02 13:20:18;;;;;;;1.23;0.70;;;23.40;49.60;;;;;;10349595;28;20042;-56
2024/04/02 13:25:20;;;;;;;2.75;0.85;;;23.40;50.10;;;;;;10343563;28;20082;-55
2024/04/02 13:30:22;;;;;;;2.65;0.82;;;23.30;50.50;;;;;;10341091;28;20050;-55
2024/04/02 13:35:27;;;;;;;1.58;0.70;;;23.40;50.50;;;;;;10346852;28;20052;-58
2024/04/02 13:40:28;;;;;;;1.33;0.77;;;23.40;50.20;;;;;;10350588;28;20502;-57
2024/04/02 13:45:30;;;;;;;3.15;0.82;;;23.60;50.30;;;;;;10351925;28;20519;-55
2024/04/02 13:50:33;;;;;;;6.18;0.80;;;23.40;50.80;;;;;;10345262;28;20502;-53
2024/04/02 13:55:35;;;;;;;3.13;0.77;;;23.40;51.00;;;;;;10361725;28;20475;-58
2024/04/02 14:00:37;;;;;;;2.13;0.80;;;23.50;50.70;;;;;;10362354;28;20041;-55
2024/04/02 14:05:40;;;;;;;3.03;0.90;;;23.70;49.50;;;;;;10400066;28;20055;-56
2024/04/02 14:10:41;;;;;;;2.47;0.90;;;23.80;48.80;;;;;;10400888;28;20041;-56
2024/04/02 14:15:43;;;;;;;1.38;0.70;;;23.80;48.80;;;;;;10379293;28;20050;-55
2024/04/02 14:20:56;;;;;;;5.60;0.95;;;23.70;49.10;;;;;;10395989;28;20135;-55
2024/04/02 14:25:59;;;;;;;2.15;0.98;;;23.60;49.60;;;;;;10393635;28;20119;-57
2024/04/02 14:31:04;;;;;;;2.45;0.95;;;23.60;49.70;;;;;;10393038;28;20054;-55
2024/04/02 14:36:07;;;;;;;1.05;0.60;;;23.60;50.10;;;;;;10392481;28;20049;-51
2024/04/02 14:41:09;;;;;;;6.60;0.77;;;23.40;50.70;;;;;;10397521;28;20056;-56
2024/04/02 14:46:10;;;;;;;5.05;1.50;;;23.50;51.10;;;;;;10395329;28;20174;-55
2024/04/02 14:51:13;;;;;;;6.20;1.08;;;23.60;51.60;;;;;;10391851;28;20052;-56
2024/04/02 14:56:15;;;;;;;8.73;1.20;;;23.60;51.60;;;;;;10401062;28;20068;-55
2024/04/02 15:01:18;;;;;;;3.15;1.83;;;23.40;51.90;;;;;;10389616;28;20050;-55
2024/04/02 15:06:20;;;;;;;4.90;2.45;;;23.50;52.10;;;;;;10365886;28;20053;-57
2024/04/02 15:11:22;;;;;;;5.15;2.50;;;23.60;52.10;;;;;;10398664;28;20059;-56
2024/04/02 15:16:27;;;;;;;9.40;2.92;;;23.50;52.70;;;;;;10402763;28;20042;-55
2024/04/02 15:21:30;;;;;;;5.97;2.95;;;23.40;53.20;;;;;;10399421;28;20046;-56
2024/04/02 15:26:32;;;;;;;6.68;2.47;;;23.40;53.60;;;;;;10397219;28;20406;-57
2024/04/02 15:31:33;;;;;;;25.95;13.55;;;23.50;53.50;;;;;;10398422;28;20045;-57
2024/04/02 15:36:36;;;;;;;214.25;101.35;;;23.50;53.50;;;;;;10398704;28;20054;-53
2024/04/02 15:41:38;;;;;;;248.82;120.90;;;23.60;54.40;;;;;;10396883;28;20049;-53
2024/04/02 15:46:40;;;;;;;229.80;115.18;;;23.50;54.80;;;;;;10392796;28;20045;-56
2024/04/02 15:51:44;;;;;;;200.57;99.20;;;23.60;54.80;;;;;;10390682;28;20501;-58
2024/04/02 15:56:45;;;;;;;168.45;87.10;;;23.80;54.10;;;;;;10393697;28;20052;-53
2024/04/02 16:01:47;;;;;;;153.85;79.10;;;23.80;53.70;;;;;;10382728;28;20058;-59
2024/04/02 16:06:50;;;;;;;134.65;70.13;;;23.90;53.40;;;;;;10387910;28;20121;-58
2024/04/02 16:11:52;;;;;;;127.20;64.70;;;24.00;53.20;;;;;;10391278;28;20052;-57
2024/04/02 16:16:53;;;;;;;119.22;61.65;;;24.10;53.10;;;;;;10390752;28;20136;-51
2024/04/02 16:21:56;;;;;;;114.40;53.80;;;24.10;52.60;;;;;;10402407;28;20141;-55
2024/04/02 16:26:58;;;;;;;90.68;48.38;;;24.20;53.20;;;;;;10396815;28;20076;-54
2024/04/02 16:32:00;;;;;;;82.85;44.40;;;24.30;52.20;;;;;;10388601;28;20068;-54
2024/04/02 16:37:03;;;;;;;75.28;42.03;;;24.30;52.00;;;;;;10379330;28;20069;-53
2024/04/02 16:42:05;;;;;;;75.75;39.30;;;24.30;51.60;;;;;;10363767;28;20046;-51
2024/04/02 16:47:06;;;;;;;60.72;35.55;;;24.30;51.50;;;;;;10379095;28;20132;-55
2024/04/02 16:52:10;;;;;;;58.20;33.22;;;24.40;51.00;;;;;;10352960;28;20052;-53
2024/04/02 16:57:11;;;;;;;54.53;31.08;;;24.40;50.60;;;;;;10376555;28;20142;-54
2024/04/02 17:02:15;;;;;;;47.90;28.63;;;24.30;50.90;;;;;;10397771;28;20543;-55
2024/04/02 17:07:18;;;;;;;51.85;27.83;;;24.30;51.60;;;;;;10385362;28;20034;-56
2024/04/02 17:12:20;;;;;;;47.17;26.02;;;24.40;51.00;;;;;;10383983;28;20521;-58
2024/04/02 17:17:21;;;;;;;45.67;25.08;;;24.60;50.80;;;;;;10409421;28;20361;-60
2024/04/02 17:22:24;;;;;;;43.58;24.13;;;24.40;51.20;;;;;;10392558;28;20089;-56
2024/04/02 17:27:26;;;;;;;25.52;12.77;;;24.40;51.10;;;;;;10370598;28;20794;-58
2024/04/02 17:32:28;;;;;;;23.63;12.25;;;24.20;48.20;;;;;;10365700;28;20133;-53
2024/04/02 17:37:31;;;;;;;11.30;6.45;;;24.00;48.80;;;;;;10374375;28;20149;-55
2024/04/02 17:42:32;;;;;;;10.73;4.68;;;23.80;47.10;;;;;;10370411;28;20486;-57
2024/04/02 17:47:34;;;;;;;12.70;5.55;;;23.70;44.90;;;;;;10370486;28;20046;-56
2024/04/02 17:52:37;;;;;;;16.17;7.82;;;23.70;47.00;;;;;;10385239;28;20051;-57
2024/04/02 17:57:38;;;;;;;20.55;9.60;;;23.90;47.80;;;;;;10385849;28;20052;-58
2024/04/02 18:02:40;;;;;;;17.05;9.02;;;24.00;48.50;;;;;;10363694;28;20052;-58
2024/04/02 18:07:43;;;;;;;18.10;10.38;;;24.00;49.40;;;;;;10389403;28;20050;-57
2024/04/02 18:12:45;;;;;;;17.02;9.57;;;24.20;49.10;;;;;;10375911;28;20451;-54
2024/04/02 18:17:50;;;;;;;17.63;10.20;;;24.20;49.30;;;;;;10367393;28;20147;-57
2024/04/02 18:22:53;;;;;;;19.05;10.52;;;24.10;49.50;;;;;;10389490;28;20052;-58
2024/04/02 18:27:54;;;;;;;17.10;9.77;;;24.00;50.20;;;;;;10399984;28;20048;-54
2024/04/02 18:32:56;;;;;;;18.20;10.00;;;24.00;50.60;;;;;;10404427;28;20050;-59
2024/04/02 18:37:59;;;;;;;16.25;9.77;;;23.90;51.10;;;;;;10406282;28;20425;-54
2024/04/02 18:43:01;;;;;;;19.15;10.13;;;24.10;50.90;;;;;;10405607;28;20045;-55
2024/04/02 18:48:03;;;;;;;17.30;9.68;;;24.00;52.00;;;;;;10400672;28;20048;-58
2024/04/02 18:53:06;;;;;;;18.10;9.27;;;24.00;51.90;;;;;;10407380;28;20043;-57
2024/04/02 18:58:08;;;;;;;16.55;9.43;;;23.90;52.70;;;;;;10401863;28;20073;-59
2024/04/02 19:03:12;;;;;;;15.57;8.95;;;24.10;52.90;;;;;;10397424;28;20103;-59
2024/04/02 19:08:15;;;;;;;16.85;9.10;;;23.70;53.20;;;;;;10406118;28;20091;-56
2024/04/02 19:13:16;;;;;;;24.42;8.70;;;23.80;53.40;;;;;;10392287;28;20131;-54
2024/04/02 19:18:18;;;;;;;18.02;8.48;;;24.00;53.40;;;;;;10403619;28;20049;-53
2024/04/02 19:23:21;;;;;;;29.75;8.95;;;24.20;53.20;;;;;;10404519;28;20049;-51
2024/04/02 19:28:23;;;;;;;18.67;7.80;;;23.50;54.00;;;;;;10404320;28;20048;-55
2024/04/02 19:33:24;;;;;;;13.02;7.30;;;23.50;53.90;;;;;;10406301;28;20133;-54
2024/04/02 19:38:28;;;;;;;16.55;7.47;;;23.10;54.50;;;;;;10403470;28;20067;-53
2024/04/02 19:43:30;;;;;;;20.55;7.85;;;23.70;53.60;;;;;;10399036;28;20046;-58
2024/04/02 19:48:31;;;;;;;17.52;7.35;;;23.30;54.10;;;;;;10401284;28;20047;-49
2024/04/02 19:53:38;;;;;;;18.88;6.85;;;23.10;54.40;;;;;;10382835;28;20075;-57
2024/04/02 19:58:40;;;;;;;19.13;7.13;;;23.10;54.10;;;;;;10400722;28;20131;-58
2024/04/02 20:03:42;;;;;;;26.95;7.40;;;23.30;53.30;;;;;;10396037;28;20057;-58
2024/04/02 20:08:45;;;;;;;17.08;6.82;;;23.40;52.90;;;;;;10401264;28;20041;-58
2024/04/02 20:13:47;;;;;;;18.08;6.43;;;23.50;52.70;;;;;;10405984;28;20049;-56
2024/04/02 20:18:51;;;;;;;17.70;6.93;;;23.40;52.70;;;;;;10396687;28;20041;-59
2024/04/02 20:23:54;;;;;;;17.23;7.00;;;23.30;53.00;;;;;;10399326;28;20099;-58
2024/04/02 20:28:56;;;;;;;17.67;6.80;;;23.60;52.00;;;;;;10399237;28;20049;-58
2024/04/02 20:33:57;;;;;;;18.35;6.68;;;23.60;51.70;;;;;;10401096;28;20050;-59
2024/04/02 20:39:00;;;;;;;16.42;7.00;;;23.60;51.80;;;;;;10407126;28;20038;-59
2024/04/02 20:44:02;;;;;;;12.35;6.32;;;23.50;52.00;;;;;;10407045;28;20041;-59
2024/04/02 20:49:04;;;;;;;13.35;6.72;;;23.40;51.90;;;;;;10410079;28;20448;-59
2024/04/02 20:54:07;;;;;;;14.15;6.20;;;23.30;52.20;;;;;;10408918;28;20103;-58
2024/04/02 20:59:08;;;;;;;13.82;6.28;;;23.20;52.60;;;;;;10408590;28;20034;-59
2024/04/02 21:04:10;;;;;;;13.40;6.50;;;23.20;52.30;;;;;;10408446;28;20046;-58
2024/04/02 21:09:13;;;;;;;14.60;7.03;;;22.90;52.80;;;;;;10407620;28;20041;-59
2024/04/02 21:14:15;;;;;;;9.57;6.18;;;22.60;54.20;;;;;;10408669;28;20076;-58
2024/04/02 21:19:17;;;;;;;10.10;6.07;;;22.70;53.00;;;;;;10407996;28;20078;-59
2024/04/02 21:24:20;;;;;;;12.93;6.07;;;22.70;53.10;;;;;;10411827;28;20391;-58
2024/04/02 21:29:21;;;;;;;10.82;5.65;;;22.80;52.50;;;;;;10408428;28;20043;-58
2024/04/02 21:34:23;;;;;;;10.38;6.03;;;22.60;53.10;;;;;;10410373;28;20045;-57
2024/04/02 21:39:26;;;;;;;8.48;5.68;;;22.70;52.80;;;;;;10408549;28;20044;-56
2024/04/02 21:44:27;;;;;;;12.20;6.00;;;22.50;53.20;;;;;;10408219;28;20081;-58
2024/04/02 21:49:29;;;;;;;10.02;5.93;;;22.80;52.30;;;;;;10409873;28;20045;-58
2024/04/02 21:54:32;;;;;;;10.95;5.55;;;22.90;51.90;;;;;;10410083;28;20056;-58
2024/04/02 21:59:34;;;;;;;10.25;5.63;;;22.40;53.00;;;;;;10409714;28;20049;-59
2024/04/02 22:04:35;;;;;;;8.60;5.30;;;22.20;53.60;;;;;;10406246;28;20042;-57
2024/04/02 22:09:38;;;;;;;10.10;5.22;;;22.20;53.60;;;;;;10410294;28;20064;-58
2024/04/02 22:14:40;;;;;;;8.25;5.18;;;22.30;53.10;;;;;;10408832;28;20053;-58
2024/04/02 22:19:42;;;;;;;9.90;5.50;;;22.00;53.90;;;;;;10409700;28;20049;-58
2024/04/02 22:24:45;;;;;;;8.38;5.05;;;22.00;53.90;;;;;;10409809;28;20060;-59
2024/04/02 22:29:47;;;;;;;9.68;5.78;;;22.10;53.40;;;;;;10407123;28;20045;-59
2024/04/02 22:34:48;;;;;;;8.60;5.65;;;21.90;53.80;;;;;;10409905;28;20059;-59
2024/04/02 22:39:51;;;;;;;8.43;4.88;;;21.90;53.60;;;;;;10408845;28;20037;-59
2024/04/02 22:44:53;;;;;;;9.95;5.18;;;22.10;53.20;;;;;;10409793;28;20053;-57
2024/04/02 22:49:54;;;;;;;9.60;5.50;;;22.10;53.00;;;;;;10411226;28;20046;-57
2024/04/02 22:54:57;;;;;;;8.07;5.10;;;22.00;53.00;;;;;;10408515;28;20131;-59
2024/04/02 22:59:59;;;;;;;6.88;4.82;;;21.90;53.30;;;;;;10411253;28;20059;-58
2024/04/02 23:05:00;;;;;;;7.75;4.85;;;21.90;53.20;;;;;;10408444;28;20083;-59
2024/04/02 23:10:04;;;;;;;8.18;4.85;;;21.80;53.50;;;;;;10408484;28;20049;-58
2024/04/02 23:15:06;;;;;;;8.38;5.10;;;21.80;53.40;;;;;;10412224;28;20124;-56
2024/04/02 23:20:09;;;;;;;7.00;4.78;;;21.90;52.90;;;;;;10408211;28;20048;-53
2024/04/02 23:25:12;;;;;;;9.02;4.78;;;22.00;52.80;;;;;;10408263;28;20132;-58
2024/04/02 23:30:14;;;;;;;6.93;4.47;;;21.90;53.10;;;;;;10407316;28;20052;-58
2024/04/02 23:35:16;;;;;;;8.20;4.78;;;21.90;52.60;;;;;;10408428;28;20048;-59
2024/04/02 23:40:19;;;;;;;8.77;4.50;;;21.90;52.70;;;;;;10403338;28;20047;-56
2024/04/02 23:45:22;;;;;;;8.48;5.00;;;22.00;52.50;;;;;;10409472;28;20047;-58
2024/04/02 23:50:25;;;;;;;6.60;4.10;;;21.80;52.80;;;;;;10407466;28;20107;-57
2024/04/02 23:55:28;;;;;;;8.15;4.78;;;21.80;52.60;;;;;;10406674;28;20096;-52
